Flight Track Log - Related Links

Times and Time Zones

All times are in EDT time to prevent confusion due to time zone crossing. See the CTL13 flight status page for this flight to view local times or setup timezone preferences in your user account.

Time Position Orientation Groundspeed Altitude Reporting Facility
EDT Latitude Longitude Course Direction KTS MPH feet Rate Location/Type
Mon 10:20:04 PM 41.8000 -87.6833 90° East 162 186 2,400  Level Chicago TRACON
Mon 10:21:10 PM 41.8000 -87.6167 90° East 165 190 3,100 550 Climbing Chicago TRACON
Mon 10:22:04 PM 41.8000 -87.5500 90° East 167 192 3,500 411 Climbing Chicago TRACON
Mon 10:22:23 PM 41.7964 -87.5492 170° South 164 189 3,600 300 Climbing Chicago Center
Mon 10:23:24 PM 41.7975 -87.4747 89° East 166 191 3,900 98 Climbing Chicago Center
Mon 10:24:26 PM 41.8089 -87.4108 77° East 174 200 3,800  Descending Chicago Center
Mon 10:25:27 PM 41.8272 -87.3467 69° East 182 209 3,900 49 Climbing Chicago Center
Mon 10:26:28 PM 41.8419 -87.2828 73° East 181 208 3,900  Level Chicago Center
Mon 10:27:29 PM 41.8597 -87.2217 69° East 177 204 3,900 49 Level Chicago Center
Mon 10:28:30 PM 41.8764 -87.1619 69° East 174 200 4,000  Climbing Chicago Center
Mon 10:29:31 PM 41.8917 -87.1017 71° East 173 199 3,900 -49 Descending Chicago Center
Mon 10:30:33 PM 41.9058 -87.0411 73° East 171 197 3,900  Level Chicago Center
Mon 10:31:34 PM 41.9236 -86.9839 67° East 167 192 3,900 49 Level Chicago Center
Mon 10:32:35 PM 41.9403 -86.9131 72° East 167 192 4,000  Climbing Chicago Center
Mon 10:33:36 PM 41.9550 -86.8528 72° East 170 196 3,900  Descending Chicago Center
Mon 10:34:37 PM 41.9719 -86.7933 69° East 172 198 4,000  Climbing Chicago Center
Mon 10:35:39 PM 41.9864 -86.7331 72° East 170 196 3,900  Descending Chicago Center
Mon 10:36:39 PM 42.0028 -86.6767 69° East 170 196 4,000 50 Climbing Chicago Center
Mon 10:37:40 PM 42.0167 -86.6161 73° East 169 194 4,000  Level Chicago Center
Mon 10:38:42 PM 42.0294 -86.5556 74° East 170 196 4,000  Level Chicago Center
Mon 10:39:43 PM 42.0483 -86.4972 66° East 169 194 4,000  Level Chicago Center
Mon 10:40:44 PM 42.0636 -86.4392 70° East 167 192 4,000  Level Chicago Center
Mon 10:41:45 PM 42.0819 -86.3678 71° East 168 193 4,000  Level Chicago Center
Mon 10:42:46 PM 42.1178 -86.3244 42° Northeast 170 196 4,000  Level Chicago Center
Mon 10:43:47 PM 42.1528 -86.2822 42° Northeast 169 194 4,000  Level Chicago Center
Mon 10:44:48 PM 42.1886 -86.2406 41° Northeast 170 196 4,000  Level Chicago Center
Mon 10:45:49 PM 42.2247 -86.1969 42° Northeast 173 199 4,000  Level Chicago Center
Mon 10:46:50 PM 42.2581 -86.1547 43° Northeast 168 193 4,000  Level Chicago Center
Mon 10:47:51 PM 42.2908 -86.1153 42° Northeast 169 194 4,000  Level Chicago Center
Mon 10:48:52 PM 42.3336 -86.0633 42° Northeast 172 198 4,000  Level Chicago Center
Mon 10:49:53 PM 42.3675 -86.0194 44° Northeast 171 197 4,000  Level Chicago Center
Mon 10:50:54 PM 42.4019 -85.9794 41° Northeast 166 191 4,000  Level Chicago Center
Mon 10:51:55 PM 42.4364 -85.9358 43° Northeast 167 192 4,000  Level Chicago Center
Mon 10:52:56 PM 42.4714 -85.8900 44° Northeast 173 199 4,000  Level Chicago Center
Mon 10:53:57 PM 42.5072 -85.8461 42° Northeast 175 201 4,000  Level Chicago Center
Mon 10:54:58 PM 42.5439 -85.8033 41° Northeast 175 201 4,000  Level Chicago Center
Mon 10:55:59 PM 42.5786 -85.7594 43° Northeast 172 198 4,000  Level Chicago Center
Mon 10:57:00 PM 42.6081 -85.7078 52° Northeast 173 199 4,000  Level Chicago Center
Mon 10:58:01 PM 42.6375 -85.6561 52° Northeast 174 200 4,000  Level Chicago Center
Mon 10:59:02 PM 42.6664 -85.6047 53° Northeast 172 198 4,000  Level Chicago Center
Mon 11:00:03 PM 42.7019 -85.5431 52° Northeast 172 198 4,000 -443 Level Chicago Center
Mon 11:01:04 PM 42.7375 -85.4986 43° Northeast 175 201 3,100 -541 Descending Chicago Center
Mon 11:02:05 PM 42.7825 -85.4981 North 163 188 2,900 -639 Descending Chicago Center
Mon 11:03:06 PM 42.8158 -85.5017 355° North 141 162 1,800 -787 Descending Chicago Center
Mon 11:04:07 PM 42.8436 -85.5083 350° North 121 139 1,300 -443 Descending Chicago Center
Mon 11:05:08 PM 42.8733 -85.5156 350° North 110 127 900 -393 Descending Chicago Center

Login

Don't have an account? Register now (free) for customized features, flight alerts, and more!